Time;durP1;ratioP1;P1;durP2;ratioP2;P2;SDS_P1;SDS_P2;PMS_P1;PMS_P2;Temp;Humidity;BMP_temperature;BMP_pressure;BME280_temperature;BME280_humidity;BME280_pressure;Samples;Min_cycle;Max_cycle;Signal;HPM_P1;HPM_P2
2021/04/03 00:00:44;;;;;;;5.83;1.97;;;23.00;99.90;;;;;;5045177;28;20181;-71
2021/04/03 00:03:13;;;;;;;8.97;2.93;;;23.20;99.90;;;;;;5046971;28;20233;-71
2021/04/03 00:05:41;;;;;;;3.13;1.83;;;23.30;99.90;;;;;;5051869;28;20618;-71
2021/04/03 00:08:09;;;;;;;4.57;1.60;;;23.30;99.90;;;;;;5051953;28;20180;-71
2021/04/03 00:10:42;;;;;;;2.57;1.40;;;23.30;99.90;;;;;;5051179;28;20180;-71
2021/04/03 00:13:10;;;;;;;3.37;1.23;;;23.30;99.90;;;;;;5049780;28;20180;-69
2021/04/03 00:15:38;;;;;;;3.80;1.73;;;23.40;99.90;;;;;;5051498;28;20214;-71
2021/04/03 00:18:05;;;;;;;3.93;1.60;;;23.50;99.90;;;;;;5051265;28;20180;-70
2021/04/03 00:20:35;;;;;;;2.87;1.40;;;23.50;99.90;;;;;;5048002;28;20234;-70
2021/04/03 00:23:04;;;;;;;4.70;1.90;;;23.60;99.90;;;;;;5051616;28;20187;-70
2021/04/03 00:25:33;;;;;;;4.90;2.00;;;23.70;99.90;;;;;;5048633;28;20204;-71
2021/04/03 00:28:00;;;;;;;6.63;2.23;;;23.80;99.90;;;;;;5048972;28;20645;-70
2021/04/03 00:30:28;;;;;;;3.73;1.70;;;23.90;99.90;;;;;;5051767;28;20311;-71
2021/04/03 00:32:59;;;;;;;2.60;1.80;;;24.10;99.90;;;;;;5051678;28;20650;-70
2021/04/03 00:35:31;;;;;;;5.83;1.60;;;24.20;99.90;;;;;;5031914;28;20181;-69
2021/04/03 00:38:03;;;;;;;2.13;1.40;;;24.10;99.90;;;;;;5036723;28;20199;-71
2021/04/03 00:40:35;;;;;;;3.87;1.73;;;24.00;99.90;;;;;;5052004;28;20186;-71
2021/04/03 00:43:06;;;;;;;2.97;1.50;;;24.10;99.90;;;;;;5050160;28;20220;-70
2021/04/03 00:45:35;;;;;;;4.43;1.77;;;24.20;99.90;;;;;;5031364;28;20232;-70
2021/04/03 00:48:05;;;;;;;2.77;1.43;;;24.30;99.90;;;;;;5044343;28;20223;-71
2021/04/03 00:50:42;;;;;;;4.73;1.90;;;24.50;99.90;;;;;;5051856;28;20179;-70
2021/04/03 00:53:12;;;;;;;3.87;1.40;;;24.40;99.90;;;;;;5051559;28;20199;-71
2021/04/03 00:55:40;;;;;;;3.17;1.40;;;24.50;99.90;;;;;;5053869;28;20187;-71
2021/04/03 00:58:09;;;;;;;2.43;1.20;;;24.60;99.90;;;;;;5050903;28;20188;-71
2021/04/03 01:00:37;;;;;;;3.67;1.57;;;24.50;99.90;;;;;;5035829;28;20180;-70
2021/04/03 01:03:05;;;;;;;4.23;1.43;;;24.70;99.90;;;;;;5054085;28;20200;-70
2021/04/03 01:05:33;;;;;;;1.37;1.10;;;24.70;99.90;;;;;;5053949;28;20219;-71
2021/04/03 01:08:01;;;;;;;7.70;1.60;;;24.70;99.90;;;;;;5051861;28;20245;-70
2021/04/03 01:10:34;;;;;;;4.97;1.43;;;24.80;99.90;;;;;;5054866;28;20184;-70
2021/04/03 01:13:04;;;;;;;3.17;1.10;;;24.80;99.90;;;;;;5054924;28;20208;-71
2021/04/03 01:15:37;;;;;;;4.03;1.40;;;25.10;99.90;;;;;;5046801;28;20189;-71
2021/04/03 01:18:25;;;;;;;2.30;1.30;;;25.30;99.90;;;;;;5051155;28;20184;-71
2021/04/03 01:21:34;;;;;;;4.17;1.50;;;25.10;99.90;;;;;;5042161;28;20232;-71
2021/04/03 01:24:31;;;;;;;2.40;1.40;;;25.10;99.90;;;;;;5020234;28;20654;-70
2021/04/03 01:27:24;;;;;;;3.13;1.70;;;25.00;99.90;;;;;;5053365;28;20204;-70
2021/04/03 01:30:06;;;;;;;5.93;1.43;;;25.20;99.90;;;;;;5054737;28;20218;-71
2021/04/03 01:32:56;;;;;;;2.23;1.17;;;25.40;99.90;;;;;;5054165;28;20279;-71
2021/04/03 01:35:44;;;;;;;2.43;1.13;;;25.40;99.90;;;;;;5054908;28;20168;-71
2021/04/03 01:38:20;;;;;;;2.07;1.57;;;25.50;99.90;;;;;;5054780;28;20168;-70
2021/04/03 01:40:49;;;;;;;2.57;1.20;;;25.90;99.90;;;;;;5054515;28;20182;-71
2021/04/03 01:43:23;;;;;;;2.27;1.10;;;26.00;99.90;;;;;;5054674;28;20831;-71
2021/04/03 01:45:51;;;;;;;2.77;0.90;;;26.40;99.90;;;;;;5054366;28;20235;-70
2021/04/03 01:48:20;;;;;;;3.77;1.13;;;26.50;99.80;;;;;;5054005;28;20164;-70
2021/04/03 01:50:48;;;;;;;2.40;1.20;;;26.50;99.90;;;;;;5054031;28;20184;-70
2021/04/03 01:53:17;;;;;;;2.67;1.07;;;26.10;99.50;;;;;;5054319;28;20179;-71
2021/04/03 01:55:45;;;;;;;4.37;1.47;;;25.70;99.90;;;;;;5054172;28;20539;-71
2021/04/03 01:58:12;;;;;;;7.50;1.40;;;26.00;99.90;;;;;;5036371;28;20176;-69
2021/04/03 02:00:42;;;;;;;4.30;1.33;;;26.40;99.90;;;;;;5036305;28;20174;-71
2021/04/03 02:03:10;;;;;;;4.33;1.13;;;26.50;99.90;;;;;;5053969;28;20172;-70
2021/04/03 02:05:38;;;;;;;2.47;1.30;;;26.30;99.90;;;;;;5053553;28;20212;-71
2021/04/03 02:08:07;;;;;;;2.40;1.10;;;26.60;99.90;;;;;;5054052;28;20234;-70
2021/04/03 02:10:35;;;;;;;2.83;1.20;;;26.90;99.80;;;;;;5054179;28;20175;-69
2021/04/03 02:13:05;;;;;;;3.90;1.10;;;27.10;99.60;;;;;;5054269;28;20266;-70
2021/04/03 02:15:33;;;;;;;1.90;1.33;;;27.10;99.40;;;;;;5053968;28;20179;-69
2021/04/03 02:18:06;;;;;;;1.93;1.10;;;27.20;99.30;;;;;;5053844;28;20188;-70
2021/04/03 02:20:34;;;;;;;1.43;0.93;;;27.00;99.10;;;;;;5052933;28;20603;-70
2021/04/03 02:23:02;;;;;;;3.83;1.10;;;27.30;99.30;;;;;;5054159;28;20168;-71
2021/04/03 02:25:30;;;;;;;1.70;0.70;;;27.60;99.10;;;;;;5053807;28;20200;-70
2021/04/03 02:27:57;;;;;;;5.97;0.80;;;27.60;98.00;;;;;;5053726;28;20176;-71
2021/04/03 02:30:25;;;;;;;2.90;0.70;;;27.60;97.80;;;;;;5053773;28;20200;-70
2021/04/03 02:32:57;;;;;;;3.57;0.70;;;27.50;97.40;;;;;;5053362;28;20176;-70
2021/04/03 02:35:26;;;;;;;1.90;0.67;;;27.60;97.70;;;;;;5053474;28;20639;-70
2021/04/03 02:37:57;;;;;;;1.53;0.70;;;27.80;97.20;;;;;;5053860;28;20179;-70
2021/04/03 02:40:28;;;;;;;3.67;1.00;;;27.60;96.60;;;;;;5053430;28;20206;-71
2021/04/03 02:43:00;;;;;;;2.70;0.90;;;27.70;96.90;;;;;;5053492;28;20575;-70
2021/04/03 02:45:29;;;;;;;4.57;0.70;;;27.90;96.50;;;;;;5053127;28;20220;-70
2021/04/03 02:48:02;;;;;;;3.93;0.70;;;27.90;96.30;;;;;;5053001;28;20176;-70
2021/04/03 02:50:41;;;;;;;4.17;1.00;;;27.80;95.90;;;;;;5053140;28;20220;-71
2021/04/03 02:53:14;;;;;;;2.03;0.73;;;27.90;95.90;;;;;;5053390;28;20171;-70
2021/04/03 02:55:49;;;;;;;2.57;0.80;;;28.30;95.40;;;;;;5048424;28;20577;-69
2021/04/03 02:58:22;;;;;;;4.30;0.70;;;28.20;95.30;;;;;;5052017;28;20190;-71
2021/04/03 03:00:55;;;;;;;1.57;0.53;;;28.10;95.20;;;;;;5052848;28;20581;-70
2021/04/03 03:03:27;;;;;;;3.37;0.97;;;28.20;95.10;;;;;;5053010;28;20213;-70
2021/04/03 03:05:58;;;;;;;2.70;0.70;;;28.20;95.30;;;;;;5053002;28;20211;-71
2021/04/03 03:08:28;;;;;;;3.70;1.00;;;28.50;94.80;;;;;;5052925;28;20501;-70
2021/04/03 03:10:57;;;;;;;2.63;0.70;;;28.30;95.00;;;;;;5053242;28;20254;-69
2021/04/03 03:13:26;;;;;;;1.17;0.70;;;28.50;95.10;;;;;;5052497;28;20176;-69
2021/04/03 03:15:53;;;;;;;4.37;0.70;;;28.30;94.70;;;;;;5049644;28;20191;-68
2021/04/03 03:18:21;;;;;;;3.23;0.70;;;28.20;95.20;;;;;;5052440;28;20298;-70
2021/04/03 03:20:49;;;;;;;2.87;0.60;;;28.30;94.80;;;;;;5051252;28;20188;-70
2021/04/03 03:23:16;;;;;;;1.13;0.40;;;28.60;94.70;;;;;;5052194;28;20246;-69
2021/04/03 03:25:44;;;;;;;3.87;0.90;;;28.90;94.20;;;;;;5052884;28;20657;-69
2021/04/03 03:28:12;;;;;;;2.57;0.70;;;28.60;94.40;;;;;;5052371;28;20180;-69
2021/04/03 03:30:40;;;;;;;5.23;0.70;;;28.40;94.70;;;;;;5052640;28;20179;-70
2021/04/03 03:33:07;;;;;;;2.63;0.87;;;28.60;94.70;;;;;;5052844;28;20184;-71
2021/04/03 03:35:35;;;;;;;6.03;0.73;;;28.40;94.60;;;;;;5052477;28;20164;-69
2021/04/03 03:38:02;;;;;;;2.20;0.70;;;28.60;94.80;;;;;;5052642;28;20257;-70
2021/04/03 03:40:31;;;;;;;2.27;0.80;;;28.90;94.00;;;;;;5052319;28;20176;-69
2021/04/03 03:42:58;;;;;;;3.27;0.70;;;28.80;94.30;;;;;;5052096;28;20254;-71
2021/04/03 03:45:26;;;;;;;2.10;0.70;;;29.00;93.70;;;;;;5052325;28;20281;-71
2021/04/03 03:47:54;;;;;;;3.27;0.80;;;29.30;93.20;;;;;;5052567;28;20188;-69
2021/04/03 03:50:22;;;;;;;1.43;0.40;;;29.40;92.90;;;;;;5051725;28;20180;-70
2021/04/03 03:52:49;;;;;;;2.53;0.47;;;29.30;93.20;;;;;;5052630;28;20171;-70
2021/04/03 03:55:17;;;;;;;1.95;0.50;;;29.40;92.80;;;;;;5052018;28;20194;-71
2021/04/03 03:57:44;;;;;;;2.00;0.52;;;29.60;92.90;;;;;;5051985;28;20237;-70
2021/04/03 04:00:12;;;;;;;1.17;0.47;;;29.60;92.70;;;;;;5052346;28;20176;-70
2021/04/03 04:02:39;;;;;;;1.70;0.70;;;29.30;92.80;;;;;;5051285;28;20689;-70
2021/04/03 04:05:07;;;;;;;3.17;0.80;;;28.90;93.40;;;;;;5047733;28;20639;-71
2021/04/03 04:07:35;;;;;;;4.13;1.03;;;28.90;93.30;;;;;;5046591;28;20241;-70
2021/04/03 04:10:07;;;;;;;1.17;0.50;;;29.20;92.90;;;;;;5040391;28;20176;-69
2021/04/03 04:12:34;;;;;;;4.57;1.00;;;29.30;93.10;;;;;;5037391;28;20537;-69
2021/04/03 04:15:02;;;;;;;1.35;0.60;;;29.00;92.90;;;;;;5052123;28;20184;-70
2021/04/03 04:17:29;;;;;;;3.67;0.70;;;29.30;92.90;;;;;;5050866;28;20598;-70
2021/04/03 04:19:56;;;;;;;4.05;0.60;;;29.40;92.80;;;;;;5050080;28;20279;-70
2021/04/03 04:22:24;;;;;;;3.53;1.05;;;29.10;93.10;;;;;;5051687;28;20629;-70
2021/04/03 04:24:51;;;;;;;3.15;0.70;;;29.70;92.90;;;;;;5045238;28;20193;-70
2021/04/03 04:27:18;;;;;;;2.13;0.70;;;29.20;92.30;;;;;;5045522;28;20243;-69
2021/04/03 04:29:46;;;;;;;3.05;0.70;;;29.60;92.40;;;;;;5053672;28;20258;-70
2021/04/03 04:32:13;;;;;;;2.10;0.67;;;29.50;92.60;;;;;;5055879;28;20229;-70
2021/04/03 04:34:40;;;;;;;4.72;0.60;;;29.30;92.60;;;;;;5055031;28;20638;-71
2021/04/03 04:37:08;;;;;;;3.67;0.73;;;29.20;92.70;;;;;;5055149;28;20192;-69
2021/04/03 04:39:35;;;;;;;3.00;0.52;;;28.70;93.40;;;;;;5055477;28;20650;-72
2021/04/03 04:42:07;;;;;;;1.48;0.60;;;29.10;92.90;;;;;;5054471;28;20271;-69
2021/04/03 04:44:34;;;;;;;2.40;1.05;;;29.50;92.50;;;;;;5054233;28;20262;-68
2021/04/03 04:47:01;;;;;;;3.60;0.68;;;29.90;92.10;;;;;;5055456;28;20222;-69
2021/04/03 04:49:29;;;;;;;4.57;0.70;;;29.90;92.00;;;;;;5055159;28;20534;-69
2021/04/03 04:51:56;;;;;;;1.98;0.80;;;30.30;91.30;;;;;;5035509;28;20196;-70
2021/04/03 04:54:23;;;;;;;2.53;0.52;;;30.10;92.00;;;;;;5055196;28;20286;-69
2021/04/03 04:56:51;;;;;;;0.60;0.32;;;29.90;91.90;;;;;;5055253;28;20538;-70
2021/04/03 04:59:18;;;;;;;3.25;0.70;;;29.80;92.00;;;;;;5055415;28;20179;-69
2021/04/03 05:01:45;;;;;;;1.30;0.55;;;29.90;92.10;;;;;;5055334;28;20531;-69
2021/04/03 05:04:13;;;;;;;1.25;0.57;;;30.30;91.90;;;;;;5054743;28;20190;-69
2021/04/03 05:06:40;;;;;;;2.10;0.77;;;30.40;91.30;;;;;;5054229;28;20349;-70
2021/04/03 05:09:07;;;;;;;3.22;0.70;;;30.60;91.10;;;;;;5051262;28;20179;-70
2021/04/03 05:11:35;;;;;;;2.15;0.80;;;30.20;91.30;;;;;;5050898;28;20550;-70
2021/04/03 05:14:03;;;;;;;2.50;0.60;;;29.60;91.80;;;;;;5054769;28;20180;-70
2021/04/03 05:16:31;;;;;;;2.25;1.13;;;29.80;91.80;;;;;;5050399;28;20180;-69
2021/04/03 05:18:58;;;;;;;5.70;1.05;;;30.00;91.70;;;;;;5053364;28;20172;-71
2021/04/03 05:21:26;;;;;;;3.45;0.57;;;29.60;91.90;;;;;;5051109;28;20184;-69
2021/04/03 05:23:53;;;;;;;2.35;0.65;;;29.70;91.70;;;;;;5048332;28;20216;-70
2021/04/03 05:26:20;;;;;;;3.83;1.00;;;29.20;92.10;;;;;;5054198;28;20294;-71
2021/04/03 05:28:48;;;;;;;2.07;0.70;;;29.10;92.20;;;;;;5051478;28;20189;-69
2021/04/03 05:31:20;;;;;;;5.50;0.68;;;29.10;92.30;;;;;;5053728;28;20914;-70
2021/04/03 05:33:48;;;;;;;5.80;0.80;;;29.30;92.30;;;;;;5048548;28;20276;-70
2021/04/03 05:36:16;;;;;;;3.78;0.75;;;29.20;92.60;;;;;;5048715;28;20235;-70
2021/04/03 05:38:43;;;;;;;3.17;0.73;;;29.70;91.70;;;;;;5054140;28;20211;-70
2021/04/03 05:41:10;;;;;;;4.43;0.68;;;29.90;91.30;;;;;;5050414;28;20274;-69
2021/04/03 05:43:39;;;;;;;3.30;0.90;;;29.70;91.80;;;;;;5052639;28;20225;-70
2021/04/03 05:46:07;;;;;;;4.38;0.82;;;29.40;91.80;;;;;;5054050;28;20706;-70
2021/04/03 05:48:36;;;;;;;1.92;0.73;;;29.40;91.80;;;;;;5053349;28;20634;-69
2021/04/03 05:51:03;;;;;;;3.88;0.60;;;29.00;92.40;;;;;;5054248;28;20630;-70
2021/04/03 05:53:31;;;;;;;1.13;0.50;;;29.20;92.40;;;;;;5049216;28;20168;-69
2021/04/03 05:55:59;;;;;;;4.82;1.00;;;29.50;92.10;;;;;;5053997;28;20214;-71
2021/04/03 05:58:27;;;;;;;3.25;0.93;;;29.40;91.70;;;;;;5053591;28;20198;-70
2021/04/03 06:00:55;;;;;;;2.30;0.75;;;29.30;91.90;;;;;;5053911;28;20241;-70
2021/04/03 06:03:23;;;;;;;1.35;0.47;;;28.80;92.70;;;;;;5035862;28;20651;-70
2021/04/03 06:05:51;;;;;;;3.67;0.60;;;28.90;92.90;;;;;;5053447;28;20208;-70
2021/04/03 06:08:19;;;;;;;2.40;0.60;;;29.10;92.70;;;;;;5053829;28;20271;-70
2021/04/03 06:11:12;;;;;;;4.00;0.90;;;29.20;93.00;;;;;;5044986;28;20184;-71
2021/04/03 06:13:40;;;;;;;2.70;0.60;;;29.20;92.10;;;;;;5050458;28;20179;-71
2021/04/03 06:16:35;;;;;;;1.87;0.77;;;29.20;92.30;;;;;;5053238;28;20199;-69
2021/04/03 06:19:26;;;;;;;3.97;0.88;;;29.00;92.70;;;;;;5051309;28;20184;-71
2021/04/03 06:21:54;;;;;;;1.17;0.43;;;28.70;93.20;;;;;;5053354;28;20176;-70
2021/04/03 06:24:23;;;;;;;2.23;0.50;;;28.30;93.20;;;;;;5053402;28;20169;-70
2021/04/03 06:27:12;;;;;;;2.43;0.40;;;28.30;93.40;;;;;;5052794;28;20555;-71
2021/04/03 06:29:43;;;;;;;4.83;0.70;;;28.00;93.90;;;;;;5040396;28;20187;-70
2021/04/03 06:32:23;;;;;;;3.50;0.70;;;28.10;94.10;;;;;;5048771;28;20652;-71
2021/04/03 06:34:56;;;;;;;3.33;0.70;;;28.20;94.30;;;;;;5052437;28;20176;-69
2021/04/03 06:37:30;;;;;;;3.43;0.60;;;28.30;94.50;;;;;;5052143;28;20542;-70
2021/04/03 06:40:03;;;;;;;3.67;0.70;;;28.20;94.70;;;;;;5053532;28;20178;-69
2021/04/03 06:42:45;;;;;;;4.40;0.77;;;27.90;94.90;;;;;;5047753;28;20307;-69
2021/04/03 06:45:33;;;;;;;1.97;0.70;;;28.10;94.90;;;;;;5042603;28;20362;-70
2021/04/03 06:48:10;;;;;;;2.13;0.47;;;27.90;95.30;;;;;;5050695;28;20192;-70
2021/04/03 06:50:40;;;;;;;2.97;0.60;;;27.80;95.10;;;;;;5052859;28;20604;-69
2021/04/03 06:53:13;;;;;;;2.73;0.80;;;27.40;95.20;;;;;;5053310;28;20188;-69
2021/04/03 06:55:42;;;;;;;6.10;0.80;;;27.00;96.00;;;;;;5053461;28;20191;-69
2021/04/03 06:58:11;;;;;;;3.07;0.53;;;27.10;95.90;;;;;;5053251;28;20606;-69
2021/04/03 07:00:39;;;;;;;3.70;0.90;;;26.70;96.90;;;;;;5053054;28;20218;-69
2021/04/03 07:03:11;;;;;;;2.47;0.60;;;27.00;97.20;;;;;;5052954;28;20541;-70
2021/04/03 07:05:38;;;;;;;1.80;0.53;;;27.10;97.10;;;;;;5049428;28;20546;-69
2021/04/03 07:08:08;;;;;;;5.30;0.80;;;26.80;97.10;;;;;;5039750;28;20215;-71
2021/04/03 07:10:37;;;;;;;4.73;0.50;;;26.50;97.60;;;;;;5042750;28;20761;-69
2021/04/03 07:13:07;;;;;;;3.70;0.73;;;26.20;98.20;;;;;;5051634;28;20180;-70
2021/04/03 07:15:34;;;;;;;1.43;0.50;;;26.30;98.50;;;;;;5052424;28;20176;-70
2021/04/03 07:18:02;;;;;;;3.20;0.60;;;26.30;98.60;;;;;;5044176;28;20184;-69
2021/04/03 07:20:30;;;;;;;2.63;0.50;;;25.90;99.20;;;;;;5049875;28;20581;-69
2021/04/03 07:23:04;;;;;;;4.43;0.80;;;25.60;99.90;;;;;;5049489;28;20260;-69
2021/04/03 07:25:45;;;;;;;3.90;0.50;;;25.10;99.90;;;;;;5052035;28;20195;-70
2021/04/03 07:28:15;;;;;;;0.97;0.50;;;24.70;99.90;;;;;;5049405;28;20270;-70
2021/04/03 07:30:46;;;;;;;1.23;0.60;;;24.30;99.90;;;;;;5050936;28;20180;-69
2021/04/03 07:33:19;;;;;;;3.27;0.80;;;24.00;99.90;;;;;;5050829;28;20244;-71
2021/04/03 07:35:50;;;;;;;1.27;0.50;;;23.80;99.90;;;;;;5051089;28;20213;-69
2021/04/03 07:38:27;;;;;;;3.37;1.50;;;23.80;99.90;;;;;;5051257;28;20653;-69
2021/04/03 07:40:56;;;;;;;1.27;0.73;;;23.70;99.90;;;;;;5052347;28;20198;-68
2021/04/03 07:43:40;;;;;;;1.33;0.70;;;23.60;99.90;;;;;;5045758;28;20540;-69
2021/04/03 07:46:14;;;;;;;16.10;8.83;;;23.60;99.90;;;;;;5049787;28;20269;-69
2021/04/03 07:48:47;;;;;;;13.17;8.40;;;23.50;99.90;;;;;;5028018;28;20572;-68
2021/04/03 07:51:23;;;;;;;4.60;2.47;;;23.40;99.90;;;;;;5041895;28;20259;-69
2021/04/03 07:53:52;;;;;;;4.00;1.63;;;23.30;99.90;;;;;;5052298;28;20609;-71
2021/04/03 07:56:24;;;;;;;3.33;0.63;;;23.20;99.90;;;;;;5051734;28;20187;-69
2021/04/03 07:58:54;;;;;;;1.60;0.60;;;23.20;99.90;;;;;;5045268;28;20177;-69
2021/04/03 08:01:26;;;;;;;3.10;0.90;;;23.10;99.90;;;;;;5049616;28;20589;-69
2021/04/03 08:04:05;;;;;;;2.40;0.80;;;23.00;99.90;;;;;;5050907;28;20183;-69
2021/04/03 08:06:33;;;;;;;2.87;1.00;;;23.00;99.90;;;;;;5051215;28;20677;-69
2021/04/03 08:09:03;;;;;;;2.07;0.77;;;23.00;99.90;;;;;;5050440;28;20229;-69
2021/04/03 08:11:31;;;;;;;3.27;0.90;;;22.90;99.90;;;;;;5052126;28;20184;-70
2021/04/03 08:13:59;;;;;;;1.03;0.67;;;22.90;99.90;;;;;;5051533;28;20221;-70
2021/04/03 08:16:32;;;;;;;3.27;0.80;;;22.90;99.90;;;;;;5051799;28;20547;-69
2021/04/03 08:19:00;;;;;;;1.97;0.80;;;22.80;99.90;;;;;;5051344;28;20206;-70
2021/04/03 08:21:40;;;;;;;1.30;0.77;;;22.80;99.90;;;;;;5051243;28;20253;-69
2021/04/03 08:24:08;;;;;;;4.07;1.40;;;22.80;99.90;;;;;;5050593;28;20179;-68
2021/04/03 08:26:37;;;;;;;5.27;0.90;;;22.80;99.90;;;;;;5051736;28;20257;-69
2021/04/03 08:29:05;;;;;;;4.67;0.90;;;22.70;99.90;;;;;;5050570;28;20208;-68
2021/04/03 08:31:34;;;;;;;3.00;0.80;;;22.70;99.90;;;;;;5052027;28;20271;-69
2021/04/03 08:34:04;;;;;;;2.13;0.87;;;22.70;99.90;;;;;;5051272;28;20674;-68
2021/04/03 08:36:36;;;;;;;7.87;1.07;;;22.70;99.90;;;;;;5045732;28;20173;-69
2021/04/03 08:39:07;;;;;;;5.47;0.80;;;22.60;99.90;;;;;;5048828;28;20206;-69
2021/04/03 08:41:36;;;;;;;2.83;1.00;;;22.60;99.90;;;;;;5051068;28;20184;-69
2021/04/03 08:44:18;;;;;;;3.07;1.10;;;22.50;99.90;;;;;;5051661;28;20256;-69
2021/04/03 08:46:48;;;;;;;3.33;1.10;;;22.50;99.90;;;;;;5031660;28;20917;-69
2021/04/03 08:49:24;;;;;;;4.97;0.83;;;22.50;99.90;;;;;;5051480;28;20172;-69
2021/04/03 08:51:52;;;;;;;4.33;1.10;;;22.50;99.90;;;;;;5051186;28;20211;-69
2021/04/03 08:54:21;;;;;;;2.10;0.83;;;22.50;99.90;;;;;;5051418;28;20184;-70
2021/04/03 08:56:49;;;;;;;4.63;0.87;;;22.50;99.90;;;;;;5044440;28;20176;-69
2021/04/03 08:59:22;;;;;;;5.67;1.10;;;22.40;99.90;;;;;;5051137;28;20172;-69
2021/04/03 09:01:54;;;;;;;5.97;1.17;;;22.40;99.90;;;;;;5032904;28;20172;-69
2021/04/03 09:04:23;;;;;;;4.97;1.30;;;22.40;99.90;;;;;;5051071;28;20203;-68
2021/04/03 09:06:50;;;;;;;2.63;1.30;;;22.30;99.90;;;;;;5051120;28;20306;-70
2021/04/03 09:09:20;;;;;;;4.80;1.20;;;22.40;99.90;;;;;;5033561;28;20534;-69
2021/04/03 09:12:04;;;;;;;7.27;1.40;;;22.30;99.90;;;;;;5049325;28;20194;-69
2021/04/03 09:14:36;;;;;;;3.77;1.40;;;22.30;99.90;;;;;;5051580;28;20184;-70
2021/04/03 09:17:19;;;;;;;3.40;1.00;;;22.30;99.90;;;;;;5055170;28;20538;-69
2021/04/03 09:19:46;;;;;;;6.73;1.27;;;22.20;99.90;;;;;;5046467;28;20202;-68
2021/04/03 09:22:17;;;;;;;4.47;1.20;;;22.20;99.90;;;;;;5053736;28;20180;-69
2021/04/03 09:24:57;;;;;;;5.40;1.20;;;22.20;99.90;;;;;;5053729;28;20254;-69
2021/04/03 09:27:28;;;;;;;3.87;1.13;;;22.20;99.90;;;;;;5052905;28;20215;-69
2021/04/03 09:30:06;;;;;;;3.80;1.40;;;22.20;99.90;;;;;;5055198;28;20187;-69
2021/04/03 09:32:45;;;;;;;4.93;1.30;;;22.20;99.90;;;;;;5048206;28;20187;-69
2021/04/03 09:35:20;;;;;;;4.07;1.47;;;22.20;99.90;;;;;;5038197;28;20177;-69
2021/04/03 09:38:01;;;;;;;4.93;1.30;;;22.20;99.90;;;;;;5047891;28;20244;-69
2021/04/03 09:40:38;;;;;;;5.27;1.77;;;22.20;99.90;;;;;;5054512;28;20188;-69
2021/04/03 09:43:06;;;;;;;2.57;1.33;;;22.20;99.90;;;;;;5040355;28;20202;-69
2021/04/03 09:45:33;;;;;;;4.80;2.10;;;22.10;99.90;;;;;;5053909;28;20701;-69
2021/04/03 09:48:01;;;;;;;3.57;1.63;;;22.10;99.90;;;;;;5053990;28;20604;-70
2021/04/03 09:50:28;;;;;;;3.70;1.30;;;22.10;99.90;;;;;;5052877;28;20208;-70
2021/04/03 09:52:56;;;;;;;2.40;1.30;;;22.00;99.90;;;;;;5053254;28;20642;-71
2021/04/03 09:55:23;;;;;;;6.73;1.50;;;22.00;99.90;;;;;;5054527;28;20251;-69
2021/04/03 09:57:51;;;;;;;11.27;1.57;;;22.00;99.90;;;;;;5052873;28;20271;-70
2021/04/03 10:00:18;;;;;;;3.30;1.40;;;22.00;99.90;;;;;;5051384;28;20173;-70
2021/04/03 10:02:45;;;;;;;5.80;1.93;;;22.00;99.90;;;;;;5049097;28;20653;-70
2021/04/03 10:05:13;;;;;;;3.00;1.40;;;22.00;99.90;;;;;;5053808;28;20199;-70
2021/04/03 10:07:40;;;;;;;5.73;1.33;;;21.90;99.90;;;;;;5054121;28;20242;-70
2021/04/03 10:10:09;;;;;;;3.03;1.30;;;21.90;99.90;;;;;;5054059;28;20179;-69
2021/04/03 10:12:36;;;;;;;5.07;2.20;;;21.90;99.90;;;;;;5052835;28;20191;-70
2021/04/03 10:15:04;;;;;;;3.63;1.57;;;21.80;99.90;;;;;;5036040;28;20176;-69
2021/04/03 10:17:32;;;;;;;3.70;1.30;;;21.80;99.90;;;;;;5053259;28;20179;-70
2021/04/03 10:19:59;;;;;;;3.00;1.30;;;21.80;99.90;;;;;;5042699;28;20694;-70
2021/04/03 10:22:27;;;;;;;2.03;1.50;;;21.80;99.90;;;;;;5047093;28;20187;-69
2021/04/03 10:24:54;;;;;;;4.50;1.60;;;21.80;99.90;;;;;;5053422;28;20172;-69
2021/04/03 10:27:22;;;;;;;4.60;1.50;;;21.80;99.90;;;;;;5051789;28;20811;-69
2021/04/03 10:29:49;;;;;;;3.83;1.77;;;21.80;99.90;;;;;;5053522;28;20183;-70
2021/04/03 10:32:17;;;;;;;5.57;1.70;;;21.80;99.90;;;;;;5047776;28;20261;-70
2021/04/03 10:34:44;;;;;;;5.50;1.77;;;21.70;99.90;;;;;;5053202;28;20176;-71
2021/04/03 10:37:12;;;;;;;8.87;1.93;;;21.70;99.90;;;;;;5053350;28;20551;-71
2021/04/03 10:39:42;;;;;;;6.57;1.77;;;21.70;99.90;;;;;;5050714;28;20219;-70
2021/04/03 10:42:13;;;;;;;6.00;1.80;;;21.80;99.90;;;;;;5053389;28;20200;-70
2021/04/03 10:44:40;;;;;;;5.93;1.60;;;21.80;99.90;;;;;;5053729;28;20231;-71
2021/04/03 10:47:08;;;;;;;4.63;1.20;;;21.80;99.90;;;;;;5053671;28;20208;-71
2021/04/03 10:49:35;;;;;;;6.00;1.80;;;21.80;99.90;;;;;;5046509;28;20176;-70
2021/04/03 10:52:03;;;;;;;2.97;1.20;;;21.80;99.90;;;;;;5045895;28;20642;-70
2021/04/03 10:54:31;;;;;;;3.87;1.40;;;21.80;99.90;;;;;;5047695;28;20173;-70
2021/04/03 10:56:58;;;;;;;4.73;1.30;;;21.80;99.90;;;;;;5047459;28;20200;-69
2021/04/03 10:59:26;;;;;;;1.63;1.50;;;21.70;99.90;;;;;;5054037;28;20180;-70
2021/04/03 11:01:53;;;;;;;3.73;1.37;;;21.70;99.90;;;;;;5041354;28;20319;-70
2021/04/03 11:04:20;;;;;;;2.70;0.87;;;21.70;99.90;;;;;;5053750;28;20179;-71
2021/04/03 11:06:48;;;;;;;6.47;1.57;;;21.70;99.90;;;;;;5053657;28;20302;-70
2021/04/03 11:09:15;;;;;;;1.60;0.97;;;21.70;99.90;;;;;;5050562;28;20282;-70
2021/04/03 11:11:43;;;;;;;2.30;1.10;;;21.70;99.90;;;;;;5048773;28;20177;-70
2021/04/03 11:14:10;;;;;;;4.87;1.10;;;21.70;99.90;;;;;;5039271;28;20171;-70
2021/04/03 11:16:38;;;;;;;4.13;1.33;;;21.70;99.90;;;;;;5053098;28;20187;-71
2021/04/03 11:19:05;;;;;;;5.53;1.20;;;21.60;99.90;;;;;;5052937;28;20641;-70
2021/04/03 11:21:33;;;;;;;4.47;1.57;;;21.60;99.90;;;;;;5053305;28;20557;-70
2021/04/03 11:24:00;;;;;;;3.20;1.20;;;21.60;99.90;;;;;;5037292;28;20172;-70
2021/04/03 11:26:28;;;;;;;3.27;1.30;;;21.60;99.90;;;;;;5051204;28;20291;-70
2021/04/03 11:28:55;;;;;;;3.83;1.33;;;21.50;99.90;;;;;;5042914;28;20188;-70
2021/04/03 11:31:23;;;;;;;3.57;1.00;;;21.50;99.90;;;;;;5044813;28;20230;-70
2021/04/03 11:33:53;;;;;;;8.00;1.20;;;21.40;99.90;;;;;;5050309;28;20176;-70
2021/04/03 11:36:21;;;;;;;1.03;0.73;;;21.40;99.90;;;;;;5052855;28;20657;-71
2021/04/03 11:38:51;;;;;;;5.67;1.10;;;21.40;99.90;;;;;;5050177;28;20271;-70
2021/04/03 11:41:18;;;;;;;3.77;1.00;;;21.40;99.90;;;;;;5039281;28;20192;-70
2021/04/03 11:43:46;;;;;;;6.57;1.30;;;21.30;99.90;;;;;;5049111;28;20176;-70
2021/04/03 11:46:13;;;;;;;4.40;1.10;;;21.30;99.90;;;;;;5045864;28;20281;-70
2021/04/03 11:48:40;;;;;;;3.47;1.00;;;21.30;99.90;;;;;;5052123;28;20208;-70
2021/04/03 11:51:07;;;;;;;2.57;0.87;;;21.20;99.90;;;;;;5044597;28;20179;-70
2021/04/03 11:53:35;;;;;;;2.93;1.00;;;21.30;99.90;;;;;;5049767;28;20540;-69
2021/04/03 11:56:02;;;;;;;3.07;0.93;;;21.20;99.90;;;;;;5051317;28;20594;-70
2021/04/03 11:58:30;;;;;;;5.60;1.23;;;21.20;99.90;;;;;;5051288;28;20176;-70
2021/04/03 12:00:58;;;;;;;2.13;1.00;;;21.20;99.90;;;;;;5050387;28;20809;-70
2021/04/03 12:03:26;;;;;;;3.57;0.90;;;21.10;99.90;;;;;;5052012;28;20184;-70
2021/04/03 12:05:53;;;;;;;1.53;1.00;;;21.10;99.90;;;;;;5051819;28;20612;-70
2021/04/03 12:08:20;;;;;;;4.10;1.10;;;21.00;99.90;;;;;;5051850;28;20576;-69
2021/04/03 12:10:49;;;;;;;2.67;1.00;;;21.00;99.90;;;;;;5052297;28;20198;-70
2021/04/03 12:13:19;;;;;;;4.33;1.20;;;21.00;99.90;;;;;;5051941;28;20180;-70
2021/04/03 12:15:47;;;;;;;5.67;1.10;;;21.00;99.90;;;;;;5051550;28;20183;-69
2021/04/03 12:18:14;;;;;;;2.37;0.90;;;21.00;99.90;;;;;;5051928;28;20585;-70
2021/04/03 12:20:42;;;;;;;2.83;0.90;;;21.00;99.90;;;;;;5051912;28;20255;-69
2021/04/03 12:23:09;;;;;;;5.37;1.40;;;21.00;99.90;;;;;;5052180;28;20172;-70
2021/04/03 12:25:37;;;;;;;5.43;1.20;;;21.00;99.90;;;;;;5038184;28;20191;-71
2021/04/03 12:28:05;;;;;;;3.03;1.10;;;21.00;99.90;;;;;;5036657;28;20234;-70
2021/04/03 12:30:33;;;;;;;3.07;0.70;;;21.10;99.90;;;;;;5044947;28;20186;-69
2021/04/03 12:33:01;;;;;;;3.67;1.00;;;21.10;99.90;;;;;;5051644;28;20180;-69
2021/04/03 12:35:29;;;;;;;3.70;0.80;;;21.10;99.90;;;;;;5050952;28;20559;-68
2021/04/03 12:37:56;;;;;;;2.53;0.80;;;21.20;99.90;;;;;;5051856;28;20540;-69
2021/04/03 12:40:23;;;;;;;3.67;0.90;;;21.10;99.90;;;;;;5051502;28;20179;-68
2021/04/03 12:42:51;;;;;;;4.60;1.30;;;21.10;99.90;;;;;;5033706;28;20180;-69
2021/04/03 12:45:18;;;;;;;7.17;1.00;;;21.10;99.90;;;;;;5050633;28;20298;-69
2021/04/03 12:47:46;;;;;;;3.53;1.00;;;21.10;99.90;;;;;;5051710;28;20319;-69
2021/04/03 12:50:14;;;;;;;4.07;1.00;;;21.10;99.90;;;;;;5038706;28;20172;-69
2021/04/03 12:52:41;;;;;;;4.53;1.13;;;21.10;99.90;;;;;;5055515;28;20199;-69
2021/04/03 12:55:09;;;;;;;3.83;0.80;;;21.10;99.90;;;;;;5055148;28;20214;-69
2021/04/03 12:57:37;;;;;;;7.00;1.30;;;21.10;99.90;;;;;;5055020;28;20180;-70
2021/04/03 13:00:06;;;;;;;4.70;1.10;;;21.00;99.90;;;;;;5054741;28;20681;-69